createdAt,value
2018-09-26T00:01:40.830Z,99.90
2018-09-26T00:04:14.470Z,99.90
2018-09-26T00:06:42.709Z,99.90
2018-09-26T00:09:12.381Z,99.90
2018-09-26T00:11:40.585Z,99.90
2018-09-26T00:14:09.054Z,99.90
2018-09-26T00:16:37.818Z,99.90
2018-09-26T00:19:06.058Z,99.90
2018-09-26T00:21:34.358Z,99.90
2018-09-26T00:24:02.593Z,99.90
2018-09-26T00:26:30.792Z,99.90
2018-09-26T00:28:58.998Z,99.90
2018-09-26T00:31:27.189Z,99.90
2018-09-26T00:33:55.382Z,99.90
2018-09-26T00:36:23.689Z,99.90
2018-09-26T00:38:51.881Z,99.90
2018-09-26T00:41:20.044Z,99.90
2018-09-26T00:43:48.429Z,99.90
2018-09-26T00:46:16.650Z,99.90
2018-09-26T00:48:44.893Z,99.90
2018-09-26T00:51:13.142Z,99.90
2018-09-26T00:53:41.354Z,99.90
2018-09-26T00:56:09.569Z,99.90
2018-09-26T00:58:37.785Z,99.90
2018-09-26T01:01:06.067Z,99.90
2018-09-26T01:03:34.281Z,99.90
2018-09-26T01:06:02.460Z,99.90
2018-09-26T01:08:30.666Z,99.90
2018-09-26T01:10:58.857Z,99.90
2018-09-26T01:13:27.036Z,99.90
2018-09-26T01:15:55.215Z,99.90
2018-09-26T01:18:35.707Z,99.90
2018-09-26T01:21:03.937Z,99.90
2018-09-26T01:23:32.144Z,99.90
2018-09-26T01:26:00.330Z,99.90
2018-09-26T01:28:28.551Z,99.90
2018-09-26T01:30:56.708Z,99.90
2018-09-26T01:33:24.883Z,99.90
2018-09-26T01:35:53.071Z,99.90
2018-09-26T01:38:21.218Z,99.90
2018-09-26T01:40:49.408Z,99.90
2018-09-26T01:43:17.632Z,99.90
2018-09-26T01:45:45.793Z,99.90
2018-09-26T01:48:13.992Z,99.90
2018-09-26T01:50:42.159Z,99.90
2018-09-26T01:53:10.353Z,99.90
2018-09-26T01:55:38.507Z,99.90
2018-09-26T01:58:06.725Z,99.90
2018-09-26T02:00:34.913Z,99.90
2018-09-26T02:03:03.116Z,99.90
2018-09-26T02:05:31.285Z,99.90
2018-09-26T02:07:59.436Z,99.90
2018-09-26T02:10:27.598Z,99.90
2018-09-26T02:12:57.592Z,99.90
2018-09-26T02:15:26.003Z,99.90
2018-09-26T02:17:54.185Z,99.90
2018-09-26T02:20:22.387Z,99.90
2018-09-26T02:22:50.543Z,99.90
2018-09-26T02:25:18.760Z,99.90
2018-09-26T02:27:46.929Z,99.90
2018-09-26T02:30:15.184Z,99.90
2018-09-26T02:32:43.344Z,99.90
2018-09-26T02:35:11.550Z,99.90
2018-09-26T02:37:39.735Z,99.90
2018-09-26T02:40:08.520Z,99.90
2018-09-26T02:42:36.668Z,99.90
2018-09-26T02:45:04.900Z,99.90
2018-09-26T02:47:33.130Z,99.90
2018-09-26T02:50:01.326Z,99.90
2018-09-26T02:52:29.550Z,99.90
2018-09-26T02:54:57.730Z,99.90
2018-09-26T02:57:25.950Z,99.90
2018-09-26T02:59:54.197Z,99.90
2018-09-26T03:02:22.388Z,99.90
2018-09-26T03:04:50.658Z,99.90
2018-09-26T03:07:18.835Z,99.90
2018-09-26T03:09:46.975Z,99.90
2018-09-26T03:12:15.127Z,99.90
2018-09-26T03:14:43.275Z,99.90
2018-09-26T03:17:11.431Z,99.90
2018-09-26T03:19:39.570Z,99.90
2018-09-26T03:22:07.700Z,99.90
2018-09-26T03:24:35.861Z,99.90
2018-09-26T03:27:04.023Z,99.90
2018-09-26T03:29:32.180Z,99.90
2018-09-26T03:32:00.355Z,99.90
2018-09-26T03:34:28.514Z,99.90
2018-09-26T03:36:56.655Z,99.90
2018-09-26T03:39:24.899Z,99.90
2018-09-26T03:41:53.063Z,99.90
2018-09-26T03:44:21.229Z,99.90
2018-09-26T03:46:49.396Z,99.90
2018-09-26T03:49:17.571Z,99.90
2018-09-26T03:51:45.732Z,99.90
2018-09-26T03:54:13.866Z,99.90
2018-09-26T03:56:41.997Z,99.90
2018-09-26T03:59:10.160Z,99.90
2018-09-26T04:01:38.325Z,99.90
2018-09-26T04:04:06.734Z,99.90
2018-09-26T04:06:34.919Z,99.90
2018-09-26T04:09:03.589Z,99.90
2018-09-26T04:11:31.760Z,99.90
2018-09-26T04:13:59.930Z,99.90
2018-09-26T04:16:28.119Z,99.90
2018-09-26T04:18:56.330Z,99.90
2018-09-26T04:21:24.538Z,99.90
2018-09-26T04:23:52.769Z,99.90
2018-09-26T04:26:20.981Z,99.90
2018-09-26T04:28:49.182Z,99.90
2018-09-26T04:31:17.328Z,99.90
2018-09-26T04:33:45.565Z,99.90
2018-09-26T04:36:13.661Z,99.90
2018-09-26T04:38:41.835Z,99.90
2018-09-26T04:41:09.932Z,99.90
2018-09-26T04:43:38.073Z,99.90
2018-09-26T04:46:06.283Z,99.90
2018-09-26T04:48:34.419Z,99.90
2018-09-26T04:51:02.574Z,99.90
2018-09-26T04:53:30.715Z,99.90
2018-09-26T04:55:58.863Z,99.90
2018-09-26T04:58:26.996Z,99.90
2018-09-26T05:00:55.143Z,99.90
2018-09-26T05:03:23.285Z,99.90
2018-09-26T05:05:51.432Z,99.90
2018-09-26T05:08:19.698Z,99.90
2018-09-26T05:10:47.772Z,99.90
2018-09-26T05:13:15.960Z,99.90
2018-09-26T05:15:44.128Z,99.90
2018-09-26T05:18:12.274Z,99.90
2018-09-26T05:20:40.416Z,99.90
2018-09-26T05:23:08.607Z,99.90
2018-09-26T05:25:36.697Z,99.90
2018-09-26T05:28:04.842Z,99.90
2018-09-26T05:30:32.991Z,99.90
2018-09-26T05:33:01.197Z,99.90
2018-09-26T05:35:29.343Z,99.90
2018-09-26T05:37:57.499Z,99.90
2018-09-26T05:40:25.631Z,99.90
2018-09-26T05:42:53.795Z,99.90
2018-09-26T05:45:21.931Z,99.90
2018-09-26T05:47:50.094Z,99.90
2018-09-26T05:50:18.617Z,99.90
2018-09-26T05:52:46.788Z,99.90
2018-09-26T05:55:15.009Z,99.90
2018-09-26T05:57:43.188Z,99.90
2018-09-26T06:00:11.411Z,99.90
2018-09-26T06:02:39.608Z,99.90
2018-09-26T06:05:07.856Z,99.90
2018-09-26T06:07:36.045Z,99.90
2018-09-26T06:10:04.256Z,99.90
2018-09-26T06:12:32.447Z,99.90
2018-09-26T06:15:00.604Z,99.90
2018-09-26T06:17:28.812Z,99.90
2018-09-26T06:19:57.161Z,99.90
2018-09-26T06:22:25.377Z,99.90
2018-09-26T06:24:53.539Z,99.90
2018-09-26T06:27:21.756Z,99.90
2018-09-26T06:29:50.004Z,99.90
2018-09-26T06:32:18.216Z,99.90
2018-09-26T06:34:46.507Z,99.90
2018-09-26T06:37:14.704Z,99.90
2018-09-26T06:39:42.859Z,99.90
2018-09-26T06:42:11.138Z,99.90
2018-09-26T06:44:39.415Z,99.90
2018-09-26T06:47:07.604Z,99.90
2018-09-26T06:49:35.794Z,99.90
2018-09-26T06:52:03.998Z,99.90
2018-09-26T06:54:32.192Z,99.90
2018-09-26T06:57:00.428Z,99.90
2018-09-26T06:59:28.695Z,99.90
2018-09-26T07:01:56.970Z,99.90
2018-09-26T07:04:25.185Z,99.90
2018-09-26T07:06:53.453Z,99.90
2018-09-26T07:09:21.641Z,99.90
2018-09-26T07:11:49.889Z,99.90
2018-09-26T07:14:18.130Z,99.90
2018-09-26T07:16:46.357Z,99.90
2018-09-26T07:19:14.582Z,99.90
2018-09-26T07:21:42.788Z,99.90
2018-09-26T07:24:10.929Z,99.90
2018-09-26T07:26:39.103Z,99.90
2018-09-26T07:29:07.286Z,99.90
2018-09-26T07:31:35.653Z,99.90
2018-09-26T07:34:03.635Z,99.90
2018-09-26T07:36:31.816Z,99.90
2018-09-26T07:38:59.980Z,99.90
2018-09-26T07:41:28.151Z,99.90
2018-09-26T07:43:56.413Z,99.90
2018-09-26T07:46:24.572Z,99.90
2018-09-26T07:48:52.772Z,99.90
2018-09-26T07:51:20.942Z,99.90
2018-09-26T07:53:49.136Z,99.90
2018-09-26T07:56:17.298Z,99.90
2018-09-26T07:58:45.487Z,99.90
2018-09-26T08:01:13.663Z,99.90
2018-09-26T08:03:41.851Z,99.90
2018-09-26T08:06:10.095Z,99.90
2018-09-26T08:08:38.922Z,99.90
2018-09-26T08:11:07.180Z,99.90
2018-09-26T08:13:35.338Z,99.90
2018-09-26T08:16:03.529Z,99.90
2018-09-26T08:18:31.696Z,99.90
2018-09-26T08:20:59.899Z,99.90
2018-09-26T08:23:28.059Z,99.90
2018-09-26T08:25:56.202Z,99.90
2018-09-26T08:28:24.363Z,99.90
2018-09-26T08:30:52.537Z,99.90
2018-09-26T08:33:20.702Z,99.90
2018-09-26T08:35:48.868Z,99.90
2018-09-26T08:38:17.024Z,99.90
2018-09-26T08:40:45.217Z,99.90
2018-09-26T08:43:13.407Z,99.90
2018-09-26T08:45:41.564Z,98.10
2018-09-26T08:48:09.702Z,93.00
2018-09-26T08:50:37.886Z,90.00
2018-09-26T08:53:06.532Z,75.80
2018-09-26T08:55:35.931Z,76.40
2018-09-26T08:58:04.082Z,73.40
2018-09-26T09:00:35.511Z,73.60
2018-09-26T09:03:04.566Z,75.90
2018-09-26T09:05:32.711Z,70.50
2018-09-26T09:08:01.431Z,69.20
2018-09-26T09:10:29.585Z,71.10
2018-09-26T09:12:57.745Z,73.30
2018-09-26T09:15:26.857Z,71.40
2018-09-26T09:17:55.091Z,72.70
2018-09-26T09:20:23.259Z,74.80
2018-09-26T09:22:51.335Z,74.40
2018-09-26T09:25:19.495Z,77.50
2018-09-26T09:27:47.676Z,75.30
2018-09-26T09:30:15.832Z,74.50
2018-09-26T09:32:44.043Z,75.00
2018-09-26T09:35:12.194Z,72.40
2018-09-26T09:37:40.332Z,76.00
2018-09-26T09:40:08.495Z,75.10
2018-09-26T09:42:36.744Z,75.50
2018-09-26T09:45:04.950Z,73.20
2018-09-26T09:47:33.143Z,73.90
2018-09-26T09:50:01.319Z,74.60
2018-09-26T09:52:29.534Z,72.60
2018-09-26T09:54:57.690Z,72.60
2018-09-26T09:57:25.854Z,71.50
2018-09-26T09:59:54.034Z,67.30
2018-09-26T10:02:22.340Z,68.10
2018-09-26T10:04:50.399Z,69.10
2018-09-26T10:07:18.536Z,66.80
2018-09-26T10:09:46.683Z,63.50
2018-09-26T10:12:15.000Z,64.40
2018-09-26T10:14:43.190Z,62.80
2018-09-26T10:17:11.387Z,63.00
2018-09-26T10:19:39.548Z,60.80
2018-09-26T10:22:07.687Z,61.20
2018-09-26T10:24:35.920Z,57.60
2018-09-26T10:27:04.083Z,57.00
2018-09-26T10:29:32.241Z,58.70
2018-09-26T10:32:00.483Z,60.30
2018-09-26T10:34:28.636Z,56.00
2018-09-26T10:36:56.808Z,57.00
2018-09-26T10:39:24.990Z,58.00
2018-09-26T10:41:53.142Z,54.30
2018-09-26T10:44:21.436Z,55.00
2018-09-26T10:46:49.507Z,52.30
2018-09-26T10:49:17.727Z,52.70
2018-09-26T10:51:45.917Z,52.20
2018-09-26T10:54:14.099Z,50.30
2018-09-26T10:56:42.291Z,51.40
2018-09-26T10:59:10.433Z,53.10
2018-09-26T11:01:38.601Z,52.60
2018-09-26T11:04:06.827Z,51.70
2018-09-26T11:06:34.954Z,52.90
2018-09-26T11:09:04.682Z,53.50
2018-09-26T11:11:32.847Z,53.90
2018-09-26T11:14:01.030Z,50.90
2018-09-26T11:16:29.301Z,51.70
2018-09-26T11:18:57.419Z,51.00
2018-09-26T11:21:25.650Z,52.10
2018-09-26T11:23:53.738Z,50.80
2018-09-26T11:26:22.033Z,52.40
2018-09-26T11:28:50.168Z,53.50
2018-09-26T11:31:18.355Z,52.70
2018-09-26T11:33:46.549Z,51.70
2018-09-26T11:36:14.680Z,51.00
2018-09-26T11:38:42.874Z,51.20
2018-09-26T11:41:11.031Z,49.60
2018-09-26T11:43:39.201Z,48.20
2018-09-26T11:46:07.734Z,49.40
2018-09-26T11:48:35.864Z,51.40
2018-09-26T11:51:06.084Z,52.30
2018-09-26T11:53:34.267Z,52.70
2018-09-26T11:56:02.502Z,51.10
2018-09-26T11:58:30.596Z,48.90
2018-09-26T12:00:58.768Z,48.50
2018-09-26T12:03:26.951Z,47.30
2018-09-26T12:05:55.162Z,47.20
2018-09-26T12:08:23.333Z,46.00
2018-09-26T12:10:52.471Z,46.80
2018-09-26T12:13:20.660Z,49.10
2018-09-26T12:15:48.818Z,48.30
2018-09-26T12:18:17.022Z,49.30
2018-09-26T12:20:45.240Z,46.90
2018-09-26T12:23:13.400Z,48.40
2018-09-26T12:25:41.594Z,46.30
2018-09-26T12:28:09.908Z,47.20
2018-09-26T12:30:38.012Z,45.80
2018-09-26T12:33:06.334Z,47.10
2018-09-26T12:35:34.543Z,44.00
2018-09-26T12:38:02.732Z,46.80
2018-09-26T12:40:30.859Z,44.10
2018-09-26T12:42:59.125Z,45.20
2018-09-26T12:45:28.125Z,43.70
2018-09-26T12:47:56.335Z,42.20
2018-09-26T12:50:24.572Z,42.30
2018-09-26T12:52:52.739Z,44.50
2018-09-26T12:55:20.894Z,44.20
2018-09-26T12:57:49.047Z,43.10
2018-09-26T13:00:17.294Z,43.90
2018-09-26T13:02:45.483Z,42.40
2018-09-26T13:05:13.543Z,44.00
2018-09-26T13:07:41.693Z,44.20
2018-09-26T13:10:09.889Z,41.70
2018-09-26T13:12:37.986Z,43.00
2018-09-26T13:15:06.654Z,41.80
2018-09-26T13:17:34.810Z,41.70
2018-09-26T13:20:02.982Z,40.40
2018-09-26T13:22:31.197Z,42.30
2018-09-26T13:24:59.328Z,42.20
2018-09-26T13:27:27.464Z,42.70
2018-09-26T13:29:55.600Z,42.20
2018-09-26T13:32:23.788Z,41.90
2018-09-26T13:34:51.859Z,41.10
2018-09-26T13:37:20.061Z,45.40
2018-09-26T13:39:48.185Z,44.20
2018-09-26T13:42:16.396Z,42.40
2018-09-26T13:44:44.469Z,44.90
2018-09-26T13:47:12.602Z,44.60
2018-09-26T13:49:40.736Z,42.50
2018-09-26T13:52:08.899Z,43.50
2018-09-26T13:54:37.135Z,44.10
2018-09-26T13:57:05.239Z,45.00
2018-09-26T13:59:33.405Z,44.60
2018-09-26T14:02:01.551Z,44.40
2018-09-26T14:04:30.071Z,43.60
2018-09-26T14:06:58.227Z,43.40
2018-09-26T14:09:26.377Z,42.10
2018-09-26T14:11:54.503Z,41.20
2018-09-26T14:14:22.740Z,42.70
2018-09-26T14:16:50.823Z,44.50
2018-09-26T14:19:18.987Z,42.60
2018-09-26T14:21:47.175Z,43.50
2018-09-26T14:24:15.360Z,41.90
2018-09-26T14:26:43.554Z,44.00
2018-09-26T14:29:11.786Z,42.40
2018-09-26T14:31:39.979Z,46.10
2018-09-26T14:34:08.178Z,45.80
2018-09-26T14:36:36.371Z,42.20
2018-09-26T14:39:06.102Z,44.10
2018-09-26T14:41:34.243Z,42.70
2018-09-26T14:44:02.614Z,42.00
2018-09-26T14:46:30.807Z,43.80
2018-09-26T14:48:58.996Z,44.10
2018-09-26T14:51:27.442Z,43.00
2018-09-26T14:53:55.710Z,43.30
2018-09-26T14:56:23.970Z,43.90
2018-09-26T14:58:52.128Z,44.70
2018-09-26T15:01:20.342Z,45.50
2018-09-26T15:03:48.567Z,45.80
2018-09-26T15:06:16.798Z,44.50
2018-09-26T15:08:45.140Z,45.50
2018-09-26T15:11:13.335Z,44.20
2018-09-26T15:13:41.707Z,47.20
2018-09-26T15:16:09.967Z,47.80
2018-09-26T15:18:38.155Z,45.50
2018-09-26T15:21:06.379Z,46.40
2018-09-26T15:23:34.723Z,44.10
2018-09-26T15:26:02.912Z,44.60
2018-09-26T15:28:31.120Z,44.80
2018-09-26T15:30:59.310Z,48.70
2018-09-26T15:33:27.512Z,46.10
2018-09-26T15:35:55.946Z,44.80
2018-09-26T15:38:24.167Z,46.90
2018-09-26T15:40:52.335Z,49.10
2018-09-26T15:43:20.539Z,51.30
2018-09-26T15:45:48.786Z,49.00
2018-09-26T15:48:17.087Z,49.10
2018-09-26T15:50:45.210Z,48.10
2018-09-26T15:53:13.395Z,49.00
2018-09-26T15:55:41.616Z,48.80
2018-09-26T15:58:09.887Z,48.90
2018-09-26T16:00:38.029Z,51.80
2018-09-26T16:03:06.265Z,52.90
2018-09-26T16:05:34.354Z,55.50
2018-09-26T16:08:02.535Z,55.50
2018-09-26T16:10:30.676Z,57.00
2018-09-26T16:12:58.832Z,58.90
2018-09-26T16:15:27.119Z,63.60
2018-09-26T16:17:56.798Z,63.80
2018-09-26T16:20:25.220Z,65.70
2018-09-26T16:22:53.343Z,70.90
2018-09-26T16:25:21.585Z,81.80
2018-09-26T16:27:51.723Z,91.10
2018-09-26T16:30:20.540Z,98.20
2018-09-26T16:32:48.712Z,99.90
2018-09-26T16:35:17.761Z,99.90
2018-09-26T16:37:46.585Z,99.90
2018-09-26T16:40:14.947Z,99.90
2018-09-26T16:42:43.059Z,99.90
2018-09-26T16:45:11.217Z,99.90
2018-09-26T16:47:39.466Z,99.90
2018-09-26T16:50:07.635Z,99.90
2018-09-26T16:52:35.758Z,99.90
2018-09-26T16:55:03.971Z,99.90
2018-09-26T16:57:32.223Z,99.90
2018-09-26T17:00:00.371Z,99.90
2018-09-26T17:02:28.509Z,99.90
2018-09-26T17:04:56.699Z,99.90
2018-09-26T17:07:25.163Z,99.90
2018-09-26T17:09:53.404Z,99.90
2018-09-26T17:12:21.603Z,99.90
2018-09-26T17:14:49.705Z,99.90
2018-09-26T17:17:17.909Z,99.90
2018-09-26T17:19:46.064Z,99.90
2018-09-26T17:22:14.223Z,99.90
2018-09-26T17:24:42.400Z,99.90
2018-09-26T17:27:10.723Z,99.90
2018-09-26T17:29:38.897Z,99.90
2018-09-26T17:32:07.122Z,99.90
2018-09-26T17:34:35.283Z,99.90
2018-09-26T17:37:03.413Z,99.90
2018-09-26T17:39:31.572Z,99.90
2018-09-26T17:41:59.761Z,99.90
2018-09-26T17:44:28.083Z,99.90
2018-09-26T17:46:56.235Z,99.90
2018-09-26T17:49:25.852Z,99.90
2018-09-26T17:51:54.196Z,99.90
2018-09-26T17:54:22.423Z,99.90
2018-09-26T17:56:50.537Z,99.90
2018-09-26T17:59:18.709Z,99.90
2018-09-26T18:01:46.872Z,99.90
2018-09-26T18:04:15.183Z,99.90
2018-09-26T18:06:44.578Z,99.90
2018-09-26T18:09:13.184Z,99.90
2018-09-26T18:11:41.330Z,99.90
2018-09-26T18:14:09.499Z,99.90
2018-09-26T18:16:39.755Z,99.90
2018-09-26T18:19:08.208Z,99.90
2018-09-26T18:21:36.540Z,99.90
2018-09-26T18:24:04.715Z,99.90
2018-09-26T18:26:33.002Z,99.90
2018-09-26T18:29:01.210Z,99.90
2018-09-26T18:31:30.422Z,99.90
2018-09-26T18:33:58.700Z,99.90
2018-09-26T18:36:26.832Z,99.90
2018-09-26T18:38:55.111Z,99.90
2018-09-26T18:41:23.205Z,99.90
2018-09-26T18:43:51.350Z,99.90
2018-09-26T18:46:19.505Z,99.90
2018-09-26T18:48:47.685Z,99.90
2018-09-26T18:51:15.831Z,99.90
2018-09-26T18:53:44.065Z,99.90
2018-09-26T18:56:12.237Z,99.90
2018-09-26T18:58:40.459Z,99.90
2018-09-26T19:01:08.591Z,99.90
2018-09-26T19:03:36.775Z,99.90
2018-09-26T19:06:05.157Z,99.90
2018-09-26T19:08:33.351Z,99.90
2018-09-26T19:11:01.572Z,99.90
2018-09-26T19:13:29.732Z,99.90
2018-09-26T19:15:57.946Z,99.90
2018-09-26T19:18:26.104Z,99.90
2018-09-26T19:20:56.456Z,99.90
2018-09-26T19:23:24.621Z,99.90
2018-09-26T19:25:52.813Z,99.90
2018-09-26T19:28:20.941Z,99.90
2018-09-26T19:30:49.095Z,99.90
2018-09-26T19:33:17.224Z,99.90
2018-09-26T19:35:45.490Z,99.90
2018-09-26T19:38:13.737Z,99.90
2018-09-26T19:40:42.016Z,99.90
2018-09-26T19:43:10.184Z,99.90
2018-09-26T19:45:38.486Z,99.90
2018-09-26T19:48:06.640Z,99.90
2018-09-26T19:50:34.806Z,99.90
2018-09-26T19:53:02.995Z,99.90
2018-09-26T19:55:32.194Z,99.90
2018-09-26T19:58:00.363Z,99.90
2018-09-26T20:00:28.527Z,99.90
2018-09-26T20:02:56.673Z,99.90
2018-09-26T20:05:24.830Z,99.90
2018-09-26T20:07:53.022Z,99.90
2018-09-26T20:10:21.210Z,99.90
2018-09-26T20:12:49.324Z,99.90
2018-09-26T20:15:17.469Z,99.90
2018-09-26T20:17:45.957Z,99.90
2018-09-26T20:20:14.138Z,99.90
2018-09-26T20:22:42.278Z,99.90
2018-09-26T20:25:10.643Z,99.90
2018-09-26T20:27:38.680Z,99.90
2018-09-26T20:30:06.892Z,99.90
2018-09-26T20:32:35.060Z,99.90
2018-09-26T20:35:03.285Z,99.90
2018-09-26T20:37:32.451Z,99.90
2018-09-26T20:40:00.625Z,99.90
2018-09-26T20:42:28.811Z,99.90
2018-09-26T20:44:56.970Z,99.90
2018-09-26T20:47:25.127Z,99.90
2018-09-26T20:49:53.327Z,99.90
2018-09-26T20:52:21.491Z,99.90
2018-09-26T20:54:49.655Z,99.90
2018-09-26T20:57:17.895Z,99.90
2018-09-26T20:59:46.053Z,99.90
2018-09-26T21:02:14.200Z,99.90
2018-09-26T21:04:42.354Z,99.90
2018-09-26T21:07:10.507Z,99.90
2018-09-26T21:09:38.651Z,99.90
2018-09-26T21:12:06.779Z,99.90
2018-09-26T21:14:34.926Z,99.90
2018-09-26T21:17:11.901Z,99.90
2018-09-26T21:19:40.075Z,99.90
2018-09-26T21:22:09.344Z,99.90
2018-09-26T21:24:37.484Z,99.90
2018-09-26T21:27:06.027Z,99.90
2018-09-26T21:29:34.179Z,99.90
2018-09-26T21:32:02.371Z,99.90
2018-09-26T21:34:30.519Z,99.90
2018-09-26T21:36:58.683Z,99.90
2018-09-26T21:39:26.809Z,99.90
2018-09-26T21:41:57.983Z,99.90
2018-09-26T21:44:26.124Z,99.90
2018-09-26T21:46:54.487Z,99.90
2018-09-26T21:49:25.750Z,99.90
2018-09-26T21:51:53.895Z,99.90
2018-09-26T21:54:22.051Z,99.90
2018-09-26T21:56:59.927Z,99.90
2018-09-26T21:59:28.075Z,99.90
2018-09-26T22:01:56.248Z,99.90
2018-09-26T22:04:24.385Z,99.90
2018-09-26T22:06:52.523Z,99.90
2018-09-26T22:09:23.215Z,99.90
2018-09-26T22:11:51.362Z,99.90
2018-09-26T22:14:19.512Z,99.90
2018-09-26T22:16:48.559Z,99.90
2018-09-26T22:19:16.688Z,99.90
2018-09-26T22:21:44.872Z,99.90
2018-09-26T22:24:13.019Z,99.90
2018-09-26T22:26:41.166Z,99.90
2018-09-26T22:29:09.378Z,99.90
2018-09-26T22:31:37.519Z,99.90
2018-09-26T22:34:05.941Z,99.90
2018-09-26T22:36:34.131Z,99.90
2018-09-26T22:39:02.283Z,99.90
2018-09-26T22:41:30.684Z,99.90
2018-09-26T22:43:58.821Z,99.90
2018-09-26T22:46:26.957Z,99.90
2018-09-26T22:48:55.093Z,99.90
2018-09-26T22:51:25.331Z,99.90
2018-09-26T22:53:53.560Z,99.90
2018-09-26T22:56:21.716Z,99.90
2018-09-26T22:58:49.934Z,99.90
2018-09-26T23:01:18.078Z,99.90
2018-09-26T23:03:46.243Z,99.90
2018-09-26T23:06:14.398Z,99.90
2018-09-26T23:08:42.554Z,99.90
2018-09-26T23:11:10.723Z,99.90
2018-09-26T23:13:43.167Z,99.90
2018-09-26T23:16:11.411Z,99.90
2018-09-26T23:18:39.554Z,99.90
2018-09-26T23:21:07.714Z,99.90
2018-09-26T23:23:35.882Z,99.90
2018-09-26T23:26:04.043Z,99.90
2018-09-26T23:28:32.319Z,99.90
2018-09-26T23:31:00.598Z,99.90
2018-09-26T23:33:28.726Z,99.90
2018-09-26T23:36:03.559Z,99.90
2018-09-26T23:38:31.732Z,99.90
2018-09-26T23:40:59.875Z,99.90
2018-09-26T23:43:28.016Z,99.90
2018-09-26T23:45:56.158Z,99.90
2018-09-26T23:48:24.291Z,99.90
2018-09-26T23:50:52.431Z,99.90
2018-09-26T23:53:20.579Z,99.90
2018-09-26T23:55:48.732Z,99.90
2018-09-26T23:58:16.889Z,99.90
